createdAt,value
2023-01-01T00:02:12.770Z,-0.90
2023-01-01T00:05:11.004Z,-0.90
2023-01-01T00:08:09.315Z,-1.00
2023-01-01T00:11:09.439Z,-1.10
2023-01-01T00:14:12.248Z,-1.10
2023-01-01T00:17:11.122Z,-1.20
2023-01-01T00:20:09.726Z,-1.20
2023-01-01T00:23:07.720Z,-1.20
2023-01-01T00:26:14.947Z,-1.30
2023-01-01T00:29:13.162Z,-1.30
2023-01-01T00:32:17.613Z,-1.40
2023-01-01T00:35:19.024Z,-2.10
2023-01-01T00:38:17.160Z,-2.50
2023-01-01T00:41:17.928Z,-2.60
2023-01-01T00:44:16.039Z,-2.30
2023-01-01T00:47:14.086Z,-2.20
2023-01-01T00:50:12.208Z,-2.50
2023-01-01T00:53:10.329Z,-2.40
2023-01-01T00:56:08.589Z,-2.80
2023-01-01T00:59:06.995Z,-2.60
2023-01-01T01:02:05.292Z,-2.60
2023-01-01T01:05:05.471Z,-2.70
2023-01-01T01:08:03.930Z,-2.80
2023-01-01T01:11:12.640Z,-2.80
2023-01-01T01:14:10.733Z,-2.60
2023-01-01T01:17:08.764Z,-2.50
2023-01-01T01:20:07.579Z,-2.30
2023-01-01T01:23:05.833Z,-2.20
2023-01-01T01:26:20.744Z,-2.30
2023-01-01T01:29:18.717Z,-2.80
2023-01-01T01:32:16.807Z,-3.10
2023-01-01T01:35:14.913Z,-2.90
2023-01-01T01:38:13.055Z,-2.90
2023-01-01T01:41:26.011Z,-2.90
2023-01-01T01:44:52.704Z,-2.80
2023-01-01T01:47:57.443Z,-2.70
2023-01-01T01:50:57.323Z,-3.30
2023-01-01T01:54:01.607Z,-3.10
2023-01-01T01:57:04.687Z,-2.80
2023-01-01T02:00:10.331Z,-2.70
2023-01-01T02:03:12.366Z,-2.70
2023-01-01T02:06:11.424Z,-2.80
2023-01-01T02:09:10.719Z,-2.70
2023-01-01T02:12:08.773Z,-2.50
2023-01-01T02:15:08.164Z,-2.90
2023-01-01T02:18:16.759Z,-3.00
2023-01-01T02:21:22.021Z,-2.70
2023-01-01T02:24:39.429Z,-2.50
2023-01-01T02:27:57.478Z,-2.40
2023-01-01T02:30:57.971Z,-2.40
2023-01-01T02:34:00.859Z,-2.30
2023-01-01T02:37:00.533Z,-2.10
2023-01-01T02:40:00.857Z,-1.90
2023-01-01T02:42:59.808Z,-1.80
2023-01-01T02:45:58.343Z,-1.80
2023-01-01T02:48:56.436Z,-2.10
2023-01-01T02:52:08.959Z,-2.20
2023-01-01T02:55:26.895Z,-2.30
2023-01-01T02:58:49.598Z,-2.20
2023-01-01T03:01:49.910Z,-2.30
2023-01-01T03:05:05.806Z,-2.10
2023-01-01T03:08:26.521Z,-2.00
2023-01-01T03:11:32.062Z,-2.00
2023-01-01T03:14:43.978Z,-2.00
2023-01-01T03:17:49.816Z,-1.90
2023-01-01T03:20:51.219Z,-1.80
2023-01-01T03:23:55.447Z,-1.70
2023-01-01T03:26:58.311Z,-1.70
2023-01-01T03:30:00.720Z,-1.60
2023-01-01T03:33:05.722Z,-1.60
2023-01-01T03:36:11.273Z,-1.60
2023-01-01T03:39:19.022Z,-1.40
2023-01-01T03:42:34.717Z,-1.30
2023-01-01T03:45:38.623Z,-1.30
2023-01-01T03:49:02.745Z,-1.20
2023-01-01T03:52:22.236Z,-1.10
2023-01-01T03:55:29.818Z,-1.10
2023-01-01T03:58:48.941Z,-0.80
2023-01-01T04:01:52.476Z,-0.70
2023-01-01T04:04:50.891Z,-0.60
2023-01-01T04:10:52.260Z,-0.40
2023-01-01T04:13:50.564Z,-0.40
2023-01-01T04:16:48.574Z,-0.40
2023-01-01T04:19:53.108Z,-0.40
2023-01-01T04:22:53.070Z,-0.30
2023-01-01T04:25:51.199Z,-0.30
2023-01-01T04:28:52.355Z,-0.40
2023-01-01T04:31:51.004Z,-0.40
2023-01-01T04:34:50.053Z,-0.30
2023-01-01T04:37:48.320Z,-0.20
2023-01-01T04:40:46.424Z,-0.30
2023-01-01T04:43:52.231Z,-0.20
2023-01-01T04:46:54.180Z,-0.30
2023-01-01T04:49:55.660Z,-0.30
2023-01-01T04:52:54.669Z,-0.30
2023-01-01T04:55:53.401Z,-0.20
2023-01-01T04:58:51.855Z,-0.20
2023-01-01T05:01:50.154Z,0.00
2023-01-01T05:04:48.284Z,0.30
2023-01-01T05:07:46.480Z,0.40
2023-01-01T05:10:44.519Z,0.40
2023-01-01T05:13:46.119Z,0.20
2023-01-01T05:16:44.383Z,-0.20
2023-01-01T05:19:42.571Z,0.00
2023-01-01T05:22:40.574Z,0.20
2023-01-01T05:25:38.719Z,0.50
2023-01-01T05:28:36.691Z,0.70
2023-01-01T05:31:36.984Z,0.90
2023-01-01T05:37:31.733Z,1.20
2023-01-01T05:40:30.883Z,1.00
2023-01-01T05:43:29.004Z,0.80
2023-01-01T05:46:27.043Z,0.90
2023-01-01T05:49:25.205Z,0.90
2023-01-01T05:52:26.857Z,0.80
2023-01-01T05:55:25.260Z,0.40
2023-01-01T05:58:23.369Z,-0.30
2023-01-01T06:01:24.425Z,-0.80
2023-01-01T06:04:22.643Z,-0.20
2023-01-01T06:07:21.084Z,0.10
2023-01-01T06:10:19.730Z,0.10
2023-01-01T06:13:17.866Z,-0.30
2023-01-01T06:16:16.277Z,-0.20
2023-01-01T06:19:15.045Z,-0.10
2023-01-01T06:22:13.035Z,0.20
2023-01-01T06:25:12.054Z,0.30
2023-01-01T06:28:10.130Z,0.20
2023-01-01T06:31:10.835Z,0.20
2023-01-01T06:34:09.852Z,0.50
2023-01-01T06:37:08.104Z,0.70
2023-01-01T06:40:06.883Z,1.10
2023-01-01T06:43:04.991Z,0.80
2023-01-01T06:46:08.026Z,0.70
2023-01-01T06:49:10.811Z,1.10
2023-01-01T06:52:08.965Z,1.30
2023-01-01T06:55:07.664Z,1.40
2023-01-01T06:58:09.854Z,1.20
2023-01-01T07:01:14.098Z,1.30
2023-01-01T07:04:14.672Z,1.30
2023-01-01T07:07:12.799Z,1.20
2023-01-01T07:10:11.180Z,1.40
2023-01-01T07:13:09.324Z,1.50
2023-01-01T07:16:12.730Z,1.40
2023-01-01T07:19:12.568Z,1.20
2023-01-01T07:22:12.130Z,1.10
2023-01-01T07:25:14.331Z,1.40
2023-01-01T07:28:13.937Z,1.60
2023-01-01T07:31:12.412Z,1.80
2023-01-01T07:34:16.414Z,1.80
2023-01-01T07:37:14.517Z,2.00
2023-01-01T07:40:13.115Z,2.00
2023-01-01T07:43:13.484Z,2.30
2023-01-01T07:46:14.432Z,2.40
2023-01-01T07:49:13.260Z,2.30
2023-01-01T07:52:11.219Z,2.10
2023-01-01T07:55:13.242Z,2.00
2023-01-01T07:58:13.174Z,1.90
2023-01-01T08:01:14.035Z,2.00
2023-01-01T08:04:12.094Z,1.90
2023-01-01T08:07:10.224Z,2.20
2023-01-01T08:10:09.350Z,2.30
2023-01-01T08:13:09.654Z,2.50
2023-01-01T08:16:08.176Z,2.70
2023-01-01T08:19:06.425Z,2.60
2023-01-01T08:22:04.521Z,2.60
2023-01-01T08:25:02.793Z,2.60
2023-01-01T08:28:01.105Z,2.60
2023-01-01T08:36:11.724Z,2.40
2023-01-01T08:39:10.418Z,2.50
2023-01-01T08:42:12.347Z,2.70
2023-01-01T08:45:11.288Z,2.90
2023-01-01T08:48:09.614Z,2.80
2023-01-01T08:51:08.318Z,2.10
2023-01-01T08:54:06.905Z,2.20
2023-01-01T08:57:07.012Z,2.30
2023-01-01T09:00:13.669Z,1.50
2023-01-01T09:07:45.389Z,1.10
2023-01-01T09:10:44.927Z,1.40
2023-01-01T09:13:43.316Z,1.80
2023-01-01T09:16:44.418Z,2.10
2023-01-01T09:19:51.725Z,2.20
2023-01-01T09:22:54.789Z,2.20
2023-01-01T09:25:53.239Z,2.20
2023-01-01T09:28:51.852Z,2.20
2023-01-01T09:31:50.695Z,2.00
2023-01-01T09:34:52.544Z,2.10
2023-01-01T09:37:51.243Z,2.20
2023-01-01T09:41:05.632Z,2.00
2023-01-01T09:44:18.175Z,1.40
2023-01-01T09:47:28.172Z,1.20
2023-01-01T09:50:36.639Z,1.50
2023-01-01T09:53:55.885Z,1.30
2023-01-01T09:56:59.141Z,1.50
2023-01-01T10:00:00.337Z,1.50
2023-01-01T10:03:27.548Z,1.30
2023-01-01T10:06:35.911Z,0.90
2023-01-01T10:09:56.307Z,0.80
2023-01-01T10:13:05.213Z,0.80
2023-01-01T10:16:23.864Z,0.60
2023-01-01T10:19:38.959Z,0.90
2023-01-01T10:22:42.729Z,1.00
2023-01-01T10:25:41.722Z,1.10
2023-01-01T10:28:58.226Z,1.10
2023-01-01T10:31:58.635Z,1.00
2023-01-01T10:34:58.190Z,1.00
2023-01-01T10:37:56.417Z,1.20
2023-01-01T10:41:02.836Z,1.40
2023-01-01T10:44:01.282Z,1.30
2023-01-01T10:47:05.628Z,1.30
2023-01-01T10:50:08.559Z,1.30
2023-01-01T10:53:06.784Z,1.10
2023-01-01T10:56:18.294Z,0.90
2023-01-01T10:59:36.238Z,0.80
2023-01-01T11:02:34.478Z,0.80
2023-01-01T11:05:33.052Z,0.70
2023-01-01T11:08:33.475Z,0.80
2023-01-01T11:11:39.099Z,0.70
2023-01-01T11:14:42.146Z,0.50
2023-01-01T11:17:40.437Z,0.50
2023-01-01T11:20:38.740Z,0.40
2023-01-01T11:23:39.610Z,0.50
2023-01-01T11:26:37.765Z,0.40
2023-01-01T11:29:35.989Z,0.40
2023-01-01T11:32:37.508Z,0.40
2023-01-01T11:35:51.096Z,0.50
2023-01-01T11:38:52.098Z,0.60
2023-01-01T11:41:53.021Z,0.60
2023-01-01T11:44:56.299Z,0.60
2023-01-01T11:47:58.263Z,0.60
2023-01-01T11:50:58.788Z,0.60
2023-01-01T11:54:12.625Z,0.50
2023-01-01T11:57:17.259Z,0.50
2023-01-01T12:00:18.134Z,0.50
2023-01-01T12:03:34.935Z,0.60
2023-01-01T12:06:42.198Z,0.50
2023-01-01T12:09:59.238Z,0.70
2023-01-01T12:13:07.730Z,0.60
2023-01-01T12:16:13.720Z,0.60
2023-01-01T12:19:19.917Z,0.50
2023-01-01T12:22:20.066Z,0.40
2023-01-01T12:25:21.062Z,0.40
2023-01-01T12:28:32.929Z,0.30
2023-01-01T12:31:55.777Z,0.30
2023-01-01T12:35:14.814Z,0.30
2023-01-01T12:38:48.411Z,0.30
2023-01-01T12:42:06.027Z,0.20
2023-01-01T12:45:33.298Z,0.10
2023-01-01T12:49:03.529Z,0.00
2023-01-01T12:52:11.801Z,0.00
2023-01-01T12:55:40.482Z,0.10
2023-01-01T12:58:44.980Z,0.00
2023-01-01T13:01:43.626Z,0.00
2023-01-01T13:04:44.347Z,0.00
2023-01-01T13:07:48.070Z,0.10
2023-01-01T13:10:51.560Z,0.10
2023-01-01T13:13:49.953Z,0.10
2023-01-01T13:16:55.434Z,0.10
2023-01-01T13:20:17.179Z,0.10
2023-01-01T13:23:45.568Z,0.10
2023-01-01T13:26:43.901Z,0.00
2023-01-01T13:29:46.002Z,0.00
2023-01-01T13:33:17.612Z,-0.10
2023-01-01T13:36:34.640Z,0.00
2023-01-01T13:39:47.763Z,-0.10
2023-01-01T13:43:07.103Z,-0.20
2023-01-01T13:46:14.599Z,-0.20
2023-01-01T13:49:42.451Z,-0.30
2023-01-01T13:53:01.650Z,-0.40
2023-01-01T13:56:25.505Z,-0.30
2023-01-01T13:59:54.518Z,-0.20
2023-01-01T14:03:01.554Z,-0.40
2023-01-01T14:06:06.267Z,-0.40
2023-01-01T14:09:14.534Z,-0.40
2023-01-01T14:12:20.146Z,-0.40
2023-01-01T14:15:29.914Z,-0.40
2023-01-01T14:18:53.348Z,-0.30
2023-01-01T14:21:53.322Z,-0.40
2023-01-01T14:24:51.478Z,-0.40
2023-01-01T14:27:49.915Z,-0.50
2023-01-01T14:30:48.625Z,-0.50
2023-01-01T14:33:47.181Z,-0.60
2023-01-01T14:36:54.660Z,-0.70
2023-01-01T14:40:16.798Z,-0.70
2023-01-01T14:43:15.082Z,-0.70
2023-01-01T14:46:20.841Z,-0.60
2023-01-01T14:49:24.768Z,-0.70
2023-01-01T14:52:28.577Z,-0.70
2023-01-01T14:55:30.209Z,-0.70
2023-01-01T14:58:30.280Z,-0.80
2023-01-01T15:01:28.525Z,-0.80
2023-01-01T15:04:26.990Z,-0.80
2023-01-01T15:07:29.583Z,-0.80
2023-01-01T15:10:30.360Z,-0.90
2023-01-01T15:13:29.727Z,-0.90
2023-01-01T15:16:31.118Z,-1.00
2023-01-01T15:19:37.285Z,-1.00
2023-01-01T15:22:39.951Z,-1.00
2023-01-01T15:25:39.253Z,-1.10
2023-01-01T15:28:39.409Z,-1.10
2023-01-01T15:31:43.060Z,-1.20
2023-01-01T15:34:50.108Z,-1.10
2023-01-01T15:37:52.186Z,-1.00
2023-01-01T15:40:53.541Z,-1.10
2023-01-01T15:43:51.898Z,-1.10
2023-01-01T15:46:53.507Z,-1.00
2023-01-01T15:49:51.596Z,-1.10
2023-01-01T15:52:55.918Z,-1.30
2023-01-01T15:55:59.137Z,-1.20
2023-01-01T15:59:09.537Z,-1.10
2023-01-01T16:02:22.875Z,-1.10
2023-01-01T16:05:25.207Z,-1.10
2023-01-01T16:08:23.753Z,-1.10
2023-01-01T16:11:21.968Z,-1.00
2023-01-01T16:14:20.263Z,-1.00
2023-01-01T16:17:21.434Z,-0.90
2023-01-01T16:20:22.904Z,-0.90
2023-01-01T16:23:21.222Z,-0.90
2023-01-01T16:26:19.568Z,-0.90
2023-01-01T16:29:18.091Z,-0.80
2023-01-01T16:32:18.835Z,-0.80
2023-01-01T16:35:17.583Z,-0.80
2023-01-01T16:38:16.383Z,-0.80
2023-01-01T16:41:19.135Z,-0.70
2023-01-01T16:44:17.791Z,-0.80
2023-01-01T16:47:16.123Z,-0.80
2023-01-01T16:50:14.314Z,-0.80
2023-01-01T16:53:12.588Z,-0.90
2023-01-01T16:56:13.413Z,-0.90
2023-01-01T16:59:11.667Z,-0.90
2023-01-01T17:02:11.993Z,-0.90
2023-01-01T17:05:11.333Z,-1.00
2023-01-01T17:08:10.525Z,-1.00
2023-01-01T17:11:14.778Z,-1.00
2023-01-01T17:14:13.681Z,-1.00
2023-01-01T17:17:11.994Z,-1.00
2023-01-01T17:20:10.526Z,-1.00
2023-01-01T17:23:09.100Z,-1.10
2023-01-01T17:26:09.812Z,-1.10
2023-01-01T17:29:08.456Z,-1.10
2023-01-01T17:32:06.790Z,-1.20
2023-01-01T17:35:08.756Z,-1.20
2023-01-01T17:38:06.815Z,-1.00
2023-01-01T17:41:08.492Z,-0.90
2023-01-01T17:44:06.831Z,-0.80
2023-01-01T17:47:05.119Z,-0.80
2023-01-01T17:50:03.342Z,-0.80
2023-01-01T17:53:01.829Z,-0.80
2023-01-01T17:55:59.986Z,-0.70
2023-01-01T17:58:59.000Z,-0.70
2023-01-01T18:01:57.583Z,-0.80
2023-01-01T18:04:56.065Z,-0.80
2023-01-01T18:07:54.125Z,-0.80
2023-01-01T18:10:56.439Z,-0.80
2023-01-01T18:13:54.661Z,-0.80
2023-01-01T18:16:53.225Z,-0.80
2023-01-01T18:19:52.443Z,-0.80
2023-01-01T18:22:55.071Z,-0.80
2023-01-01T18:25:53.183Z,-0.80
2023-01-01T18:28:54.141Z,-1.00
2023-01-01T18:31:52.233Z,-1.10
2023-01-01T18:34:52.030Z,-1.00
2023-01-01T18:37:50.125Z,-1.10
2023-01-01T18:41:00.931Z,-1.10
2023-01-01T18:44:00.921Z,-1.20
2023-01-01T18:47:08.856Z,-1.30
2023-01-01T18:50:17.763Z,-1.30
2023-01-01T18:53:23.127Z,-1.40
2023-01-01T18:56:21.184Z,-1.40
2023-01-01T18:59:25.068Z,-1.50
2023-01-01T19:02:39.628Z,-1.60
2023-01-01T19:05:37.983Z,-1.70
2023-01-01T19:08:36.220Z,-1.90
2023-01-01T19:11:36.541Z,-1.90
2023-01-01T19:14:34.690Z,-1.90
2023-01-01T19:17:33.102Z,-1.80
2023-01-01T19:20:31.126Z,-1.70
2023-01-01T19:23:31.436Z,-1.60
2023-01-01T19:26:35.481Z,-1.60
2023-01-01T19:29:38.519Z,-1.50
2023-01-01T19:32:36.626Z,-1.40
2023-01-01T19:35:34.819Z,-1.40
2023-01-01T19:38:33.025Z,-1.50
2023-01-01T19:41:31.379Z,-1.40
2023-01-01T19:44:29.432Z,-1.40
2023-01-01T19:47:27.922Z,-1.40
2023-01-01T19:50:25.994Z,-1.40
2023-01-01T19:53:24.242Z,-1.50
2023-01-01T19:56:22.911Z,-1.50
2023-01-01T19:59:21.214Z,-1.40
2023-01-01T20:02:44.608Z,-1.40
2023-01-01T20:05:37.461Z,-1.40
2023-01-01T20:08:35.661Z,-1.40
2023-01-01T20:11:33.849Z,-1.40
2023-01-01T20:14:32.231Z,-1.30
2023-01-01T20:17:31.491Z,-1.30
2023-01-01T20:20:29.651Z,-1.20
2023-01-01T20:23:27.872Z,-1.20
2023-01-01T20:26:26.699Z,-1.30
2023-01-01T20:29:25.324Z,-1.40
2023-01-01T20:32:23.687Z,-1.40
2023-01-01T20:35:41.780Z,-1.40
2023-01-01T20:38:40.512Z,-1.40
2023-01-01T20:41:39.251Z,-1.50
2023-01-01T20:44:37.596Z,-1.60
2023-01-01T20:47:37.585Z,-1.60
2023-01-01T20:50:35.613Z,-1.70
2023-01-01T20:53:33.774Z,-1.70
2023-01-01T20:56:32.356Z,-1.70
2023-01-01T20:59:35.812Z,-1.70
2023-01-01T21:02:35.820Z,-1.70
2023-01-01T21:05:34.131Z,-1.70
2023-01-01T21:08:32.481Z,-1.70
2023-01-01T21:11:30.683Z,-1.70
2023-01-01T21:14:29.233Z,-1.70
2023-01-01T21:17:28.707Z,-1.70
2023-01-01T21:20:35.291Z,-1.70
2023-01-01T21:23:33.677Z,-1.80
2023-01-01T21:26:36.930Z,-1.80
2023-01-01T21:29:36.169Z,-1.80
2023-01-01T21:32:40.689Z,-1.90
2023-01-01T21:35:39.340Z,-1.90
2023-01-01T21:38:37.394Z,-1.80
2023-01-01T21:41:35.933Z,-1.80
2023-01-01T21:44:34.195Z,-1.80
2023-01-01T21:47:32.433Z,-1.70
2023-01-01T21:50:30.551Z,-1.70
2023-01-01T21:53:33.892Z,-1.70
2023-01-01T21:56:38.332Z,-1.70
2023-01-01T21:59:39.343Z,-1.80
2023-01-01T22:02:39.635Z,-1.90
2023-01-01T22:05:43.173Z,-2.00
2023-01-01T22:08:44.610Z,-2.10
2023-01-01T22:11:43.233Z,-2.00
2023-01-01T22:14:45.623Z,-2.10
2023-01-01T22:17:43.801Z,-2.10
2023-01-01T22:20:45.150Z,-2.10
2023-01-01T22:23:44.048Z,-2.10
2023-01-01T22:26:42.662Z,-2.00
2023-01-01T22:29:40.952Z,-1.90
2023-01-01T22:32:38.976Z,-1.90
2023-01-01T22:35:37.140Z,-2.00
2023-01-01T22:38:35.285Z,-1.90
2023-01-01T22:41:33.487Z,-1.90
2023-01-01T22:44:34.356Z,-2.00
2023-01-01T22:47:37.297Z,-2.00
2023-01-01T22:50:35.807Z,-2.00
2023-01-01T22:53:34.045Z,-2.00
2023-01-01T22:56:32.253Z,-2.10
2023-01-01T22:59:30.481Z,-2.10
2023-01-01T23:02:28.523Z,-2.10
2023-01-01T23:05:26.791Z,-2.20
2023-01-01T23:08:28.512Z,-2.20
2023-01-01T23:11:26.692Z,-2.20
2023-01-01T23:14:45.483Z,-2.20
2023-01-01T23:17:43.712Z,-2.10
2023-01-01T23:20:41.807Z,-2.10
2023-01-01T23:23:40.775Z,-2.10
2023-01-01T23:26:40.235Z,-2.10
2023-01-01T23:29:38.466Z,-2.10
2023-01-01T23:32:38.058Z,-2.10
2023-01-01T23:35:36.426Z,-2.10
2023-01-01T23:38:35.183Z,-2.10
2023-01-01T23:41:33.375Z,-2.10
2023-01-01T23:44:31.432Z,-2.10
2023-01-01T23:47:29.649Z,-2.10
2023-01-01T23:50:27.891Z,-2.10
2023-01-01T23:53:26.125Z,-2.10
2023-01-01T23:56:24.192Z,-2.00
2023-01-01T23:59:22.365Z,-2.00
